createdAt,value
2019-04-21T00:00:26.033Z,12.30
2019-04-21T00:02:55.504Z,12.40
2019-04-21T00:05:43.175Z,12.40
2019-04-21T00:08:27.144Z,12.30
2019-04-21T00:10:53.012Z,12.30
2019-04-21T00:13:12.427Z,12.30
2019-04-21T00:15:36.779Z,12.30
2019-04-21T00:18:08.583Z,12.40
2019-04-21T00:20:43.945Z,12.40
2019-04-21T00:23:24.270Z,12.30
2019-04-21T00:25:52.891Z,12.30
2019-04-21T00:28:39.552Z,12.30
2019-04-21T00:31:00.566Z,12.20
2019-04-21T00:33:19.597Z,12.30
2019-04-21T00:35:52.911Z,12.20
2019-04-21T00:38:40.772Z,12.20
2019-04-21T00:41:11.019Z,12.20
2019-04-21T00:43:33.365Z,12.20
2019-04-21T00:45:57.598Z,12.20
2019-04-21T00:48:43.939Z,12.10
2019-04-21T00:51:29.073Z,12.10
2019-04-21T00:54:01.306Z,12.10
2019-04-21T00:56:21.782Z,12.10
2019-04-21T00:58:56.129Z,12.00
2019-04-21T01:01:23.476Z,11.90
2019-04-21T01:03:58.119Z,11.90
2019-04-21T01:06:33.165Z,11.90
2019-04-21T01:08:56.421Z,11.80
2019-04-21T01:11:23.669Z,11.80
2019-04-21T01:13:59.515Z,11.70
2019-04-21T01:16:33.169Z,11.70
2019-04-21T01:19:00.779Z,11.70
2019-04-21T01:21:14.244Z,11.70
2019-04-21T01:23:42.253Z,11.60
2019-04-21T01:26:25.327Z,11.60
2019-04-21T01:29:00.070Z,11.60
2019-04-21T01:31:29.996Z,11.50
2019-04-21T01:34:05.611Z,11.50
2019-04-21T01:36:37.031Z,11.50
2019-04-21T01:39:13.691Z,11.40
2019-04-21T01:41:41.345Z,11.40
2019-04-21T01:44:06.220Z,11.30
2019-04-21T01:46:33.975Z,11.30
2019-04-21T01:49:05.637Z,11.30
2019-04-21T01:51:57.890Z,11.30
2019-04-21T01:54:40.657Z,11.20
2019-04-21T01:57:20.734Z,11.20
2019-04-21T01:59:42.571Z,11.10
2019-04-21T02:02:18.424Z,11.20
2019-04-21T02:05:01.137Z,11.10
2019-04-21T02:07:20.595Z,11.10
2019-04-21T02:09:59.024Z,11.10
2019-04-21T02:12:30.010Z,11.10
2019-04-21T02:15:06.361Z,11.00
2019-04-21T02:17:31.067Z,11.00
2019-04-21T02:19:53.845Z,10.90
2019-04-21T02:22:35.338Z,10.80
2019-04-21T02:25:02.854Z,10.80
2019-04-21T02:27:29.831Z,10.80
2019-04-21T02:30:10.249Z,10.80
2019-04-21T02:32:44.273Z,10.70
2019-04-21T02:35:24.262Z,10.70
2019-04-21T02:38:00.838Z,10.70
2019-04-21T02:40:11.574Z,10.60
2019-04-21T02:45:17.101Z,10.50
2019-04-21T02:58:00.080Z,10.50
2019-04-21T03:00:32.224Z,10.40
2019-04-21T03:03:19.909Z,10.40
2019-04-21T03:06:08.341Z,10.40
2019-04-21T03:08:44.318Z,10.30
2019-04-21T03:11:09.055Z,10.30
2019-04-21T03:13:41.004Z,10.20
2019-04-21T03:16:16.725Z,10.20
2019-04-21T03:23:51.747Z,10.10
2019-04-21T03:26:24.921Z,10.10
2019-04-21T03:28:44.205Z,10.10
2019-04-21T03:31:43.010Z,10.00
2019-04-21T03:36:43.783Z,10.00
2019-04-21T03:38:47.338Z,9.90
2019-04-21T03:41:22.210Z,9.90
2019-04-21T03:43:52.523Z,9.90
2019-04-21T03:46:24.686Z,9.90
2019-04-21T03:48:51.758Z,9.90
2019-04-21T03:53:53.746Z,9.90
2019-04-21T03:56:52.266Z,9.90
2019-04-21T03:58:58.177Z,10.00
2019-04-21T04:01:58.099Z,10.00
2019-04-21T04:04:44.218Z,10.00
2019-04-21T04:07:50.037Z,10.00
2019-04-21T04:10:16.799Z,10.00
2019-04-21T04:12:44.354Z,10.10
2019-04-21T04:15:26.662Z,10.10
2019-04-21T04:17:40.773Z,10.10
2019-04-21T04:20:26.199Z,10.00
2019-04-21T04:22:56.443Z,10.00
2019-04-21T04:25:20.899Z,10.10
2019-04-21T04:27:59.925Z,10.10
2019-04-21T04:30:23.656Z,10.10
2019-04-21T04:32:48.274Z,10.10
2019-04-21T04:35:34.128Z,10.10
2019-04-21T04:38:12.817Z,10.10
2019-04-21T04:43:11.738Z,10.10
2019-04-21T04:45:53.644Z,10.10
2019-04-21T04:53:25.725Z,10.20
2019-04-21T04:58:18.009Z,10.20
2019-04-21T05:00:53.716Z,10.20
2019-04-21T05:03:23.982Z,10.20
2019-04-21T05:06:42.144Z,10.20
2019-04-21T05:11:40.286Z,10.20
2019-04-21T05:16:43.251Z,10.30
2019-04-21T05:19:10.675Z,10.40
2019-04-21T05:21:34.658Z,10.40
2019-04-21T05:24:08.113Z,10.40
2019-04-21T05:26:22.017Z,10.40
2019-04-21T05:28:53.979Z,10.40
2019-04-21T05:31:58.481Z,10.40
2019-04-21T05:34:27.667Z,10.40
2019-04-21T05:37:33.357Z,10.50
2019-04-21T05:40:04.455Z,10.50
2019-04-21T05:42:33.230Z,10.60
2019-04-21T05:45:18.519Z,10.60
2019-04-21T05:48:26.936Z,10.60
2019-04-21T05:50:46.146Z,10.60
2019-04-21T05:53:27.533Z,10.70
2019-04-21T05:58:19.644Z,10.70
2019-04-21T06:03:32.443Z,10.90
2019-04-21T06:08:38.963Z,11.00
2019-04-21T06:11:00.247Z,11.10
2019-04-21T06:13:42.791Z,11.10
2019-04-21T06:16:21.499Z,11.20
2019-04-21T06:18:43.219Z,11.20
2019-04-21T06:21:05.595Z,11.20
2019-04-21T06:23:36.508Z,11.20
2019-04-21T06:31:21.567Z,11.30
2019-04-21T06:34:11.214Z,11.30
2019-04-21T06:41:31.129Z,11.50
2019-04-21T06:44:01.483Z,11.60
2019-04-21T06:46:35.479Z,11.70
2019-04-21T06:48:59.939Z,11.80
2019-04-21T06:51:33.727Z,11.90
2019-04-21T06:56:38.332Z,12.00
2019-04-21T06:59:03.711Z,11.60
2019-04-21T07:01:36.292Z,12.10
2019-04-21T07:04:11.764Z,12.20
2019-04-21T07:06:45.755Z,12.20
2019-04-21T07:09:17.370Z,12.30
2019-04-21T07:11:36.738Z,12.40
2019-04-21T07:14:30.180Z,12.40
2019-04-21T07:16:46.351Z,12.50
2019-04-21T07:21:38.299Z,12.70
2019-04-21T07:24:14.677Z,12.80
2019-04-21T07:26:42.433Z,13.00
2019-04-21T07:29:17.058Z,13.20
2019-04-21T07:31:57.157Z,13.40
2019-04-21T07:34:23.890Z,13.70
2019-04-21T07:36:56.051Z,14.00
2019-04-21T07:39:18.100Z,14.30
2019-04-21T07:41:43.763Z,14.50
2019-04-21T07:44:14.975Z,14.70
2019-04-21T07:46:43.154Z,15.00
2019-04-21T07:49:41.578Z,15.30
2019-04-21T07:52:28.984Z,15.50
2019-04-21T07:55:12.966Z,15.90
2019-04-21T07:57:23.573Z,16.20
2019-04-21T08:00:15.030Z,16.50
2019-04-21T08:05:17.322Z,16.50
2019-04-21T08:07:41.519Z,16.20
2019-04-21T08:10:02.867Z,16.10
2019-04-21T08:12:33.722Z,16.10
2019-04-21T08:15:15.598Z,16.30
2019-04-21T08:17:36.628Z,16.50
2019-04-21T08:20:09.602Z,16.80
2019-04-21T08:22:48.005Z,17.20
2019-04-21T08:25:11.792Z,17.40
2019-04-21T08:27:55.528Z,17.60
2019-04-21T08:30:28.879Z,17.80
2019-04-21T08:35:50.925Z,18.40
2019-04-21T08:37:54.732Z,18.60
2019-04-21T08:40:32.720Z,19.80
2019-04-21T08:42:55.452Z,24.30
2019-04-21T08:48:00.849Z,30.00
2019-04-21T08:50:33.905Z,31.90
2019-04-21T08:53:04.039Z,34.20
2019-04-21T08:55:52.463Z,36.20
2019-04-21T08:58:34.529Z,38.40
2019-04-21T09:01:10.579Z,39.80
2019-04-21T09:03:56.517Z,41.40
2019-04-21T09:06:31.630Z,41.60
2019-04-21T09:08:58.127Z,42.00
2019-04-21T09:11:24.068Z,42.60
2019-04-21T09:13:54.449Z,42.50
2019-04-21T09:16:26.492Z,41.90
2019-04-21T09:18:54.096Z,42.50
2019-04-21T09:21:31.414Z,43.20
2019-04-21T09:24:09.681Z,43.20
2019-04-21T09:26:31.061Z,43.00
2019-04-21T09:28:57.332Z,43.60
2019-04-21T09:31:24.132Z,43.70
2019-04-21T09:33:50.751Z,42.90
2019-04-21T09:36:21.594Z,41.90
2019-04-21T09:38:57.721Z,41.70
2019-04-21T09:41:23.844Z,41.80
2019-04-21T09:43:54.024Z,42.60
2019-04-21T09:46:23.223Z,43.10
2019-04-21T09:48:59.269Z,44.70
2019-04-21T09:51:23.718Z,44.70
2019-04-21T09:54:01.186Z,44.80
2019-04-21T09:56:37.408Z,45.70
2019-04-21T09:59:04.069Z,46.90
2019-04-21T10:01:36.783Z,47.70
2019-04-21T10:04:00.804Z,47.90
2019-04-21T10:06:28.993Z,47.20
2019-04-21T10:09:03.977Z,46.20
2019-04-21T10:11:29.288Z,45.40
2019-04-21T10:13:58.940Z,45.50
2019-04-21T10:17:05.457Z,45.00
2019-04-21T10:19:34.725Z,46.10
2019-04-21T10:22:05.833Z,44.60
2019-04-21T10:24:36.195Z,44.00
2019-04-21T10:27:07.271Z,43.20
2019-04-21T10:29:41.472Z,42.20
2019-04-21T10:32:07.585Z,41.80
2019-04-21T10:34:37.170Z,40.80
2019-04-21T10:37:07.099Z,39.20
2019-04-21T10:39:37.678Z,36.50
2019-04-21T10:42:07.174Z,33.60
2019-04-21T10:44:36.860Z,31.30
2019-04-21T10:47:06.889Z,29.20
2019-04-21T10:49:36.923Z,27.60
2019-04-21T10:52:13.011Z,25.90
2019-04-21T10:55:06.802Z,24.80
2019-04-21T10:57:18.465Z,23.40
2019-04-21T10:59:50.742Z,22.90
2019-04-21T11:02:43.745Z,22.50
2019-04-21T11:05:14.458Z,22.20
2019-04-21T11:08:05.137Z,21.80
2019-04-21T11:10:23.770Z,21.60
2019-04-21T11:12:53.042Z,21.50
2019-04-21T11:15:23.366Z,21.40
2019-04-21T11:17:52.746Z,21.30
2019-04-21T11:20:22.809Z,21.10
2019-04-21T11:22:53.564Z,21.00
2019-04-21T11:25:24.287Z,20.80
2019-04-21T11:27:55.217Z,20.60
2019-04-21T11:30:25.615Z,20.50
2019-04-21T11:32:55.315Z,20.40
2019-04-21T11:35:25.489Z,20.40
2019-04-21T11:38:04.652Z,20.30
2019-04-21T11:40:27.700Z,20.30
2019-04-21T11:42:57.981Z,20.20
2019-04-21T11:45:32.704Z,20.20
2019-04-21T11:48:24.223Z,20.00
2019-04-21T11:50:55.063Z,19.80
2019-04-21T11:53:25.190Z,19.80
2019-04-21T11:55:55.588Z,19.80
2019-04-21T11:58:26.198Z,19.80
2019-04-21T12:01:00.144Z,19.80
2019-04-21T12:03:29.618Z,19.70
2019-04-21T12:05:59.529Z,19.80
2019-04-21T12:08:36.225Z,19.90
2019-04-21T12:10:59.945Z,19.90
2019-04-21T12:13:30.003Z,20.00
2019-04-21T12:15:59.459Z,20.00
2019-04-21T12:18:30.488Z,19.90
2019-04-21T12:21:01.119Z,20.00
2019-04-21T12:23:30.550Z,20.00
2019-04-21T12:26:01.112Z,20.00
2019-04-21T12:28:30.587Z,20.00
2019-04-21T12:31:00.317Z,20.00
2019-04-21T12:34:03.923Z,19.90
2019-04-21T12:36:33.834Z,19.70
2019-04-21T12:39:05.193Z,19.60
2019-04-21T12:41:34.329Z,19.50
2019-04-21T12:44:04.598Z,19.60
2019-04-21T12:46:34.109Z,19.60
2019-04-21T12:49:04.151Z,19.60
2019-04-21T12:51:33.791Z,19.50
2019-04-21T12:54:03.759Z,19.50
2019-04-21T12:56:33.666Z,19.70
2019-04-21T12:59:03.119Z,19.80
2019-04-21T13:01:32.764Z,19.90
2019-04-21T13:04:02.262Z,20.00
2019-04-21T13:06:31.773Z,19.90
2019-04-21T13:09:05.281Z,19.80
2019-04-21T13:11:33.159Z,19.80
2019-04-21T13:14:03.973Z,20.00
2019-04-21T13:16:33.659Z,20.10
2019-04-21T13:19:03.193Z,20.20
2019-04-21T13:21:32.530Z,20.30
2019-04-21T13:24:03.005Z,20.30
2019-04-21T13:26:39.446Z,20.30
2019-04-21T13:29:03.513Z,20.30
2019-04-21T13:31:34.141Z,20.30
2019-04-21T13:34:04.173Z,20.50
2019-04-21T13:36:33.857Z,20.60
2019-04-21T13:40:01.752Z,20.70
2019-04-21T13:42:21.340Z,20.70
2019-04-21T13:44:44.492Z,20.50
2019-04-21T13:47:14.522Z,20.40
2019-04-21T13:49:45.366Z,20.40
2019-04-21T13:52:15.051Z,20.60
2019-04-21T13:54:45.515Z,20.70
2019-04-21T13:57:16.552Z,20.50
2019-04-21T13:59:46.433Z,20.60
2019-04-21T14:02:18.249Z,20.70
2019-04-21T14:04:47.776Z,20.80
2019-04-21T14:07:18.334Z,20.90
2019-04-21T14:09:57.023Z,20.90
2019-04-21T14:12:19.289Z,21.00
2019-04-21T14:14:50.079Z,21.10
2019-04-21T14:17:19.707Z,21.00
2019-04-21T14:19:50.963Z,21.50
2019-04-21T14:22:22.204Z,22.30
2019-04-21T14:24:52.038Z,22.50
2019-04-21T14:27:21.474Z,22.30
2019-04-21T14:29:51.359Z,21.90
2019-04-21T14:32:22.263Z,21.60
2019-04-21T14:34:53.946Z,21.40
2019-04-21T14:37:24.575Z,21.30
2019-04-21T14:40:01.849Z,21.20
2019-04-21T14:42:26.141Z,21.00
2019-04-21T14:44:56.839Z,21.00
2019-04-21T14:47:53.028Z,21.00
2019-04-21T14:50:40.059Z,20.90
2019-04-21T14:53:35.913Z,20.90
2019-04-21T14:56:07.069Z,20.70
2019-04-21T14:58:37.131Z,20.70
2019-04-21T15:01:08.285Z,20.70
2019-04-21T15:03:37.738Z,20.70
2019-04-21T15:06:07.517Z,20.60
2019-04-21T15:08:37.344Z,20.60
2019-04-21T15:11:08.605Z,20.40
2019-04-21T15:13:38.126Z,20.30
2019-04-21T15:16:08.815Z,20.30
2019-04-21T15:18:39.027Z,20.30
2019-04-21T15:21:08.462Z,20.30
2019-04-21T15:23:38.196Z,20.20
2019-04-21T15:26:08.342Z,20.30
2019-04-21T15:28:39.126Z,20.30
2019-04-21T15:31:12.658Z,20.30
2019-04-21T15:33:41.116Z,20.30
2019-04-21T15:36:11.216Z,20.20
2019-04-21T15:38:40.809Z,20.20
2019-04-21T15:41:10.786Z,20.10
2019-04-21T15:43:40.631Z,20.00
2019-04-21T15:46:10.984Z,20.00
2019-04-21T15:48:41.185Z,19.90
2019-04-21T15:51:11.119Z,19.80
2019-04-21T15:53:41.803Z,19.80
2019-04-21T15:56:15.196Z,19.80
2019-04-21T15:58:59.047Z,19.90
2019-04-21T16:01:50.782Z,19.90
2019-04-21T16:04:20.884Z,19.80
2019-04-21T16:06:50.310Z,19.80
2019-04-21T16:09:22.385Z,19.70
2019-04-21T16:11:51.630Z,19.70
2019-04-21T16:14:21.033Z,19.70
2019-04-21T16:16:51.752Z,19.70
2019-04-21T16:19:22.908Z,19.70
2019-04-21T16:21:52.789Z,19.70
2019-04-21T16:24:23.315Z,19.70
2019-04-21T16:26:53.018Z,19.60
2019-04-21T16:29:23.007Z,19.50
2019-04-21T16:31:53.271Z,19.50
2019-04-21T16:34:34.455Z,19.40
2019-04-21T16:36:53.970Z,19.40
2019-04-21T16:39:23.346Z,19.30
2019-04-21T16:41:52.634Z,19.20
2019-04-21T16:44:23.182Z,19.10
2019-04-21T16:46:53.551Z,19.10
2019-04-21T16:49:23.177Z,19.00
2019-04-21T16:52:14.469Z,19.00
2019-04-21T16:54:46.135Z,18.90
2019-04-21T16:57:21.986Z,18.90
2019-04-21T16:59:54.808Z,18.80
2019-04-21T17:02:24.826Z,18.70
2019-04-21T17:04:54.269Z,18.70
2019-04-21T17:07:24.138Z,18.60
2019-04-21T17:09:54.787Z,18.60
2019-04-21T17:12:26.317Z,18.50
2019-04-21T17:15:10.718Z,18.50
2019-04-21T17:17:50.097Z,18.40
2019-04-21T17:20:13.894Z,18.40
2019-04-21T17:22:28.359Z,18.30
2019-04-21T17:24:58.234Z,18.20
2019-04-21T17:27:29.113Z,18.10
2019-04-21T17:29:59.103Z,18.10
2019-04-21T17:32:34.688Z,18.00
2019-04-21T17:34:59.677Z,17.90
2019-04-21T17:37:30.523Z,17.80
2019-04-21T17:40:04.915Z,17.60
2019-04-21T17:42:42.957Z,17.50
2019-04-21T17:45:05.476Z,17.50
2019-04-21T17:47:44.951Z,17.40
2019-04-21T17:50:35.908Z,17.30
2019-04-21T17:53:12.246Z,17.20
2019-04-21T17:55:40.807Z,17.10
2019-04-21T17:58:25.306Z,17.00
2019-04-21T18:01:09.819Z,17.00
2019-04-21T18:03:52.229Z,16.90
2019-04-21T18:05:59.604Z,16.90
2019-04-21T18:08:37.130Z,16.80
2019-04-21T18:10:59.514Z,16.70
2019-04-21T18:13:22.686Z,16.60
2019-04-21T18:16:01.535Z,16.60
2019-04-21T18:18:20.935Z,16.60
2019-04-21T18:20:57.102Z,16.50
2019-04-21T18:23:44.921Z,16.40
2019-04-21T18:26:09.945Z,16.40
2019-04-21T18:28:36.825Z,16.30
2019-04-21T18:31:12.133Z,16.30
2019-04-21T18:34:13.931Z,16.30
2019-04-21T18:36:48.665Z,16.20
2019-04-21T18:39:52.731Z,16.10
2019-04-21T18:42:40.452Z,16.10
2019-04-21T18:48:19.200Z,16.00
2019-04-21T18:50:57.082Z,16.00
2019-04-21T18:53:57.209Z,15.90
2019-04-21T18:56:15.236Z,15.90
2019-04-21T18:58:42.670Z,15.80
2019-04-21T19:01:19.082Z,15.80
2019-04-21T19:03:47.216Z,15.80
2019-04-21T19:06:18.705Z,15.70
2019-04-21T19:09:07.985Z,15.70
2019-04-21T19:11:36.042Z,15.70
2019-04-21T19:16:51.006Z,15.60
2019-04-21T19:19:37.958Z,15.60
2019-04-21T19:21:40.365Z,15.50
2019-04-21T19:24:23.104Z,15.50
2019-04-21T19:26:55.657Z,15.40
2019-04-21T19:29:24.333Z,15.40
2019-04-21T19:31:50.656Z,15.30
2019-04-21T19:34:07.712Z,15.30
2019-04-21T19:36:33.136Z,15.20
2019-04-21T19:39:08.247Z,15.10
2019-04-21T19:41:48.963Z,15.10
2019-04-21T19:44:22.137Z,15.10
2019-04-21T19:46:55.989Z,15.00
2019-04-21T19:49:30.459Z,15.10
2019-04-21T19:51:50.829Z,15.00
2019-04-21T19:54:18.733Z,15.00
2019-04-21T19:56:40.903Z,14.90
2019-04-21T19:59:11.835Z,14.90
2019-04-21T20:01:41.440Z,14.90
2019-04-21T20:04:10.732Z,14.90
2019-04-21T20:06:52.203Z,14.80
2019-04-21T20:09:27.709Z,14.80
2019-04-21T20:11:58.170Z,14.80
2019-04-21T20:17:04.557Z,14.70
2019-04-21T20:19:22.546Z,14.70
2019-04-21T20:21:53.463Z,14.60
2019-04-21T20:24:27.990Z,14.60
2019-04-21T20:27:03.539Z,14.60
2019-04-21T20:29:46.641Z,14.60
2019-04-21T20:32:20.138Z,14.60
2019-04-21T20:34:50.910Z,14.50
2019-04-21T20:37:14.790Z,14.50
2019-04-21T20:39:39.255Z,14.40
2019-04-21T20:42:19.845Z,14.40
2019-04-21T20:44:57.412Z,14.40
2019-04-21T20:47:11.260Z,14.30
2019-04-21T20:49:41.553Z,14.30
2019-04-21T20:52:23.992Z,14.20
2019-04-21T20:54:48.328Z,14.20
2019-04-21T20:57:24.189Z,14.20
2019-04-21T20:59:53.054Z,14.10
2019-04-21T21:02:28.373Z,14.10
2019-04-21T21:04:45.657Z,14.10
2019-04-21T21:07:41.167Z,14.10
2019-04-21T21:10:00.527Z,14.00
2019-04-21T21:12:35.873Z,14.00
2019-04-21T21:14:55.478Z,14.00
2019-04-21T21:20:08.507Z,14.00
2019-04-21T21:22:35.100Z,13.90
2019-04-21T21:25:05.279Z,13.90
2019-04-21T21:27:31.907Z,13.90
2019-04-21T21:30:05.594Z,13.90
2019-04-21T21:32:37.095Z,13.90
2019-04-21T21:35:12.029Z,13.90
2019-04-21T21:37:44.046Z,13.90
2019-04-21T21:40:12.698Z,13.80
2019-04-21T21:42:30.499Z,13.80
2019-04-21T21:45:02.780Z,13.80
2019-04-21T21:47:49.930Z,13.80
2019-04-21T21:50:10.026Z,13.80
2019-04-21T21:52:39.869Z,13.80
2019-04-21T21:54:59.819Z,13.70
2019-04-21T21:57:34.162Z,13.70
2019-04-21T22:00:04.695Z,13.70
2019-04-21T22:02:37.152Z,13.70
2019-04-21T22:05:09.632Z,13.70
2019-04-21T22:07:35.621Z,13.70
2019-04-21T22:10:06.349Z,13.70
2019-04-21T22:12:45.723Z,13.70
2019-04-21T22:15:13.960Z,13.60
2019-04-21T22:17:54.372Z,13.60
2019-04-21T22:20:28.242Z,13.60
2019-04-21T22:22:53.423Z,13.50
2019-04-21T22:25:20.451Z,13.50
2019-04-21T22:27:43.442Z,13.40
2019-04-21T22:30:14.751Z,13.40
2019-04-21T22:32:53.972Z,13.40
2019-04-21T22:35:23.856Z,13.30
2019-04-21T22:37:56.702Z,13.30
2019-04-21T22:40:30.013Z,13.30
2019-04-21T22:42:59.470Z,13.30
2019-04-21T22:45:20.303Z,13.30
2019-04-21T22:47:49.597Z,13.30
2019-04-21T22:50:26.621Z,13.20
2019-04-21T22:52:59.511Z,13.20
2019-04-21T22:55:30.881Z,13.10
2019-04-21T22:57:59.911Z,13.10
2019-04-21T23:00:37.126Z,13.00
2019-04-21T23:03:07.950Z,12.90
2019-04-21T23:05:36.328Z,12.80
2019-04-21T23:08:05.444Z,12.70
2019-04-21T23:10:34.945Z,12.70
2019-04-21T23:13:09.390Z,13.30
2019-04-21T23:15:42.371Z,12.80
2019-04-21T23:18:20.183Z,12.80
2019-04-21T23:20:53.636Z,12.80
2019-04-21T23:23:32.027Z,12.80
2019-04-21T23:25:53.066Z,12.80
2019-04-21T23:28:34.579Z,12.80
2019-04-21T23:31:00.786Z,12.80
2019-04-21T23:33:15.831Z,12.80
2019-04-21T23:35:46.004Z,12.80
2019-04-21T23:38:16.056Z,12.80
2019-04-21T23:40:50.530Z,12.90
2019-04-21T23:43:21.357Z,12.80
2019-04-21T23:45:48.720Z,12.80
2019-04-21T23:48:35.708Z,12.80
2019-04-21T23:50:56.625Z,12.80
2019-04-21T23:53:21.527Z,12.70
2019-04-21T23:55:53.065Z,12.70
2019-04-21T23:58:26.428Z,12.60
